EDT,Max TemperatureF,Mean TemperatureF,Min TemperatureF,Max Dew PointF,MeanDew PointF,Min DewpointF,Max Humidity, Mean Humidity, Min Humidity, Max Sea Level PressureIn, Mean Sea Level PressureIn, Min Sea Level PressureIn, Max VisibilityMiles, Mean VisibilityMiles, Min VisibilityMiles, Max Wind SpeedMPH, Mean Wind SpeedMPH, Max Gust SpeedMPH,PrecipitationIn, CloudCover, Events, WindDirDegrees
2012-9-1,95,84,73,79,75,72,100,78,55,30.18,30.12,30.06,10,8,0,13,3,,0.00,1,Fog,225
2012-9-2,96,86,77,79,76,73,94,76,47,30.08,30.03,29.97,10,10,5,14,5,,0.00,1,,214
2012-9-3,89,84,78,77,74,72,89,75,62,30.06,30.02,30.00,10,10,8,14,7,18,0.00,0,,192
2012-9-4,89,83,77,75,73,72,84,72,58,30.03,30.00,29.95,10,10,10,14,9,17,0.00,1,,177
2012-9-5,91,84,77,75,74,72,89,74,55,30.00,29.96,29.92,10,10,8,14,8,20,0.00,1,,188
2012-9-6,95,85,75,77,74,70,94,74,44,30.00,29.96,29.91,10,9,5,13,4,16,0.00,2,,222
2012-9-7,93,82,71,77,74,70,94,81,52,29.97,29.92,29.88,10,9,0,15,4,29,0.92,3,Rain-Thunderstorm,221
2012-9-8,91,84,77,77,75,72,89,78,59,29.88,29.85,29.79,10,10,7,18,8,26,0.00,3,Thunderstorm,212
2012-9-9,86,78,69,75,70,66,94,77,58,29.98,29.86,29.78,10,10,7,12,7,16,0.01,4,Thunderstorm,311
2012-9-10,87,74,62,64,60,52,94,66,29,30.14,30.06,29.98,10,10,10,12,3,17,0.00,1,,31
2012-9-11,84,73,62,63,58,52,94,62,35,30.26,30.21,30.13,10,10,10,17,5,24,0.00,0,,60
2012-9-12,82,73,64,64,60,55,88,65,42,30.30,30.26,30.23,10,10,10,17,6,23,0.00,0,,45
2012-9-13,84,76,69,70,66,63,94,73,48,30.27,30.22,30.18,10,10,2,17,8,24,0.00,3,Rain,36
2012-9-14,86,78,69,70,68,64,88,76,55,30.20,30.16,30.12,10,10,9,12,5,,0.00,1,,37
2012-9-15,89,78,66,72,68,63,94,77,40,30.16,30.12,30.09,10,10,8,12,2,,0.00,0,,58
2012-9-16,86,78,69,73,68,64,94,76,51,30.13,30.09,30.04,10,10,7,9,1,,0.00,1,,114
2012-9-17,87,78,68,73,70,64,94,80,58,30.08,30.03,29.96,10,10,5,13,3,21,0.05,1,Rain,148
2012-9-18,87,81,75,75,73,70,89,76,58,29.95,29.85,29.77,10,9,5,24,13,32,0.00,2,,197
2012-9-19,86,78,69,72,68,63,94,77,58,30.09,29.96,29.85,10,10,8,13,5,17,0.00,4,,338
2012-9-20,82,74,66,68,64,63,88,76,54,30.13,30.08,30.04,10,10,9,9,6,,0.00,3,,24
2012-9-21,84,75,66,66,64,61,94,72,48,30.09,30.06,30.02,10,10,9,8,4,,0.00,0,,38
2012-9-22,89,78,66,70,66,63,94,75,43,30.07,30.02,29.98,10,10,6,10,2,,0.00,0,,179
2012-9-23,84,73,62,70,67,59,94,78,58,30.10,30.04,29.99,10,9,6,12,2,,0.00,2,,33
2012-9-24,80,70,59,63,57,54,94,69,42,30.18,30.13,30.07,10,10,8,21,4,24,0.00,0,,52
2012-9-25,80,68,57,63,59,54,94,73,44,30.23,30.20,30.16,10,10,10,12,3,20,0.00,0,,70
2012-9-26,82,72,62,70,66,59,94,77,58,30.22,30.18,30.15,10,10,9,13,4,16,0.00,0,,58
2012-9-27,89,78,66,72,65,63,94,73,40,30.21,30.15,30.10,10,10,6,14,2,17,0.00,0,,63
2012-9-28,91,78,66,70,67,63,94,75,38,30.13,30.07,30.01,10,10,7,9,1,,0.00,1,,292
2012-9-29,89,78,66,72,68,64,100,78,46,30.04,29.96,29.87,10,8,1,10,2,,0.01,1,Rain,243
2012-9-30,80,74,69,73,69,66,94,85,70,29.91,29.87,29.84,10,8,5,10,4,,0.02,5,,147